sensor_id;sensor_type;location;lat;lon;timestamp;P1;durP1;ratioP1;P2;durP2;ratioP2
34737;SDS011;39910;47.154;27.614;2023-02-21T00:00:51;9.18;;;8.77;;
34737;SDS011;39910;47.154;27.614;2023-02-21T00:03:35;9.10;;;8.70;;
34737;SDS011;39910;47.154;27.614;2023-02-21T00:06:19;8.88;;;8.48;;
34737;SDS011;39910;47.154;27.614;2023-02-21T00:09:03;8.73;;;8.32;;
34737;SDS011;39910;47.154;27.614;2023-02-21T00:11:47;9.27;;;8.87;;
34737;SDS011;39910;47.154;27.614;2023-02-21T00:14:31;9.23;;;8.82;;
34737;SDS011;39910;47.154;27.614;2023-02-21T00:17:14;8.77;;;8.38;;
34737;SDS011;39910;47.154;27.614;2023-02-21T00:19:59;8.93;;;8.52;;
34737;SDS011;39910;47.154;27.614;2023-02-21T00:22:43;8.93;;;8.53;;
34737;SDS011;39910;47.154;27.614;2023-02-21T00:25:27;8.55;;;8.15;;
34737;SDS011;39910;47.154;27.614;2023-02-21T00:28:11;9.00;;;8.60;;
34737;SDS011;39910;47.154;27.614;2023-02-21T00:30:55;8.82;;;8.43;;
34737;SDS011;39910;47.154;27.614;2023-02-21T00:33:39;8.95;;;8.55;;
34737;SDS011;39910;47.154;27.614;2023-02-21T00:36:23;8.80;;;8.40;;
34737;SDS011;39910;47.154;27.614;2023-02-21T00:39:07;8.80;;;8.40;;
34737;SDS011;39910;47.154;27.614;2023-02-21T00:41:51;9.15;;;8.75;;
34737;SDS011;39910;47.154;27.614;2023-02-21T00:44:34;8.45;;;8.05;;
34737;SDS011;39910;47.154;27.614;2023-02-21T00:47:18;9.30;;;8.90;;
34737;SDS011;39910;47.154;27.614;2023-02-21T00:50:03;8.60;;;8.20;;
34737;SDS011;39910;47.154;27.614;2023-02-21T00:52:47;9.00;;;8.60;;
34737;SDS011;39910;47.154;27.614;2023-02-21T00:55:31;8.70;;;8.30;;
34737;SDS011;39910;47.154;27.614;2023-02-21T00:58:14;8.95;;;8.55;;
34737;SDS011;39910;47.154;27.614;2023-02-21T01:00:58;9.05;;;8.65;;
34737;SDS011;39910;47.154;27.614;2023-02-21T01:03:43;8.90;;;8.50;;
34737;SDS011;39910;47.154;27.614;2023-02-21T01:06:26;8.53;;;8.13;;
34737;SDS011;39910;47.154;27.614;2023-02-21T01:09:10;8.80;;;8.40;;
34737;SDS011;39910;47.154;27.614;2023-02-21T01:11:54;8.82;;;8.43;;
34737;SDS011;39910;47.154;27.614;2023-02-21T01:14:38;9.10;;;8.70;;
34737;SDS011;39910;47.154;27.614;2023-02-21T01:17:22;8.68;;;8.27;;
34737;SDS011;39910;47.154;27.614;2023-02-21T01:20:06;8.85;;;8.45;;
34737;SDS011;39910;47.154;27.614;2023-02-21T01:22:50;9.10;;;8.70;;
34737;SDS011;39910;47.154;27.614;2023-02-21T01:25:34;8.45;;;8.05;;
34737;SDS011;39910;47.154;27.614;2023-02-21T01:28:18;8.93;;;8.52;;
34737;SDS011;39910;47.154;27.614;2023-02-21T01:31:02;9.00;;;8.60;;
34737;SDS011;39910;47.154;27.614;2023-02-21T01:33:46;8.85;;;8.45;;
34737;SDS011;39910;47.154;27.614;2023-02-21T01:36:30;8.50;;;8.10;;
34737;SDS011;39910;47.154;27.614;2023-02-21T01:39:14;8.80;;;8.40;;
34737;SDS011;39910;47.154;27.614;2023-02-21T01:41:58;8.68;;;8.27;;
34737;SDS011;39910;47.154;27.614;2023-02-21T01:44:42;8.80;;;8.40;;
34737;SDS011;39910;47.154;27.614;2023-02-21T01:47:27;9.13;;;8.73;;
34737;SDS011;39910;47.154;27.614;2023-02-21T01:53:06;8.65;;;8.25;;
34737;SDS011;39910;47.154;27.614;2023-02-21T01:55:51;9.18;;;8.77;;
34737;SDS011;39910;47.154;27.614;2023-02-21T01:58:35;9.02;;;8.63;;
34737;SDS011;39910;47.154;27.614;2023-02-21T02:01:22;8.90;;;8.50;;
34737;SDS011;39910;47.154;27.614;2023-02-21T02:04:08;8.90;;;8.50;;
34737;SDS011;39910;47.154;27.614;2023-02-21T02:06:52;9.27;;;8.87;;
34737;SDS011;39910;47.154;27.614;2023-02-21T02:09:36;8.88;;;8.48;;
34737;SDS011;39910;47.154;27.614;2023-02-21T02:33:32;9.25;;;8.85;;
34737;SDS011;39910;47.154;27.614;2023-02-21T02:43:43;9.05;;;8.65;;
34737;SDS011;39910;47.154;27.614;2023-02-21T02:46:18;9.00;;;8.60;;
34737;SDS011;39910;47.154;27.614;2023-02-21T02:49:05;9.27;;;8.88;;
34737;SDS011;39910;47.154;27.614;2023-02-21T02:51:32;9.00;;;8.60;;
34737;SDS011;39910;47.154;27.614;2023-02-21T02:53:58;9.00;;;8.60;;
34737;SDS011;39910;47.154;27.614;2023-02-21T02:56:23;8.60;;;8.20;;
34737;SDS011;39910;47.154;27.614;2023-02-21T03:11:29;8.68;;;8.27;;
34737;SDS011;39910;47.154;27.614;2023-02-21T03:13:57;9.00;;;8.60;;
34737;SDS011;39910;47.154;27.614;2023-02-21T03:18:53;8.90;;;8.50;;
34737;SDS011;39910;47.154;27.614;2023-02-21T03:21:22;8.70;;;8.30;;
34737;SDS011;39910;47.154;27.614;2023-02-21T03:23:49;8.98;;;8.57;;
34737;SDS011;39910;47.154;27.614;2023-02-21T03:26:15;9.00;;;8.60;;
34737;SDS011;39910;47.154;27.614;2023-02-21T03:28:41;9.27;;;8.88;;
34737;SDS011;39910;47.154;27.614;2023-02-21T03:31:07;9.20;;;8.80;;
34737;SDS011;39910;47.154;27.614;2023-02-21T03:33:34;8.80;;;8.40;;
34737;SDS011;39910;47.154;27.614;2023-02-21T03:36:01;9.40;;;9.00;;
34737;SDS011;39910;47.154;27.614;2023-02-21T03:38:28;8.98;;;8.57;;
34737;SDS011;39910;47.154;27.614;2023-02-21T03:40:53;9.52;;;9.10;;
34737;SDS011;39910;47.154;27.614;2023-02-21T03:43:18;9.07;;;8.68;;
34737;SDS011;39910;47.154;27.614;2023-02-21T03:45:44;9.10;;;8.70;;
34737;SDS011;39910;47.154;27.614;2023-02-21T03:48:09;9.10;;;8.70;;
34737;SDS011;39910;47.154;27.614;2023-02-21T03:50:34;8.82;;;8.43;;
34737;SDS011;39910;47.154;27.614;2023-02-21T03:53:00;8.80;;;8.40;;
34737;SDS011;39910;47.154;27.614;2023-02-21T03:55:25;8.90;;;8.50;;
34737;SDS011;39910;47.154;27.614;2023-02-21T03:57:50;9.43;;;8.93;;
34737;SDS011;39910;47.154;27.614;2023-02-21T04:00:15;9.40;;;9.00;;
34737;SDS011;39910;47.154;27.614;2023-02-21T04:02:41;9.32;;;8.93;;
34737;SDS011;39910;47.154;27.614;2023-02-21T04:05:07;9.40;;;9.00;;
34737;SDS011;39910;47.154;27.614;2023-02-21T04:07:32;9.32;;;8.93;;
34737;SDS011;39910;47.154;27.614;2023-02-21T04:09:57;9.50;;;9.10;;
34737;SDS011;39910;47.154;27.614;2023-02-21T04:12:23;9.40;;;9.00;;
34737;SDS011;39910;47.154;27.614;2023-02-21T04:14:48;9.38;;;8.98;;
34737;SDS011;39910;47.154;27.614;2023-02-21T04:17:13;9.38;;;8.98;;
34737;SDS011;39910;47.154;27.614;2023-02-21T04:19:40;9.18;;;8.77;;
34737;SDS011;39910;47.154;27.614;2023-02-21T04:22:05;9.25;;;8.85;;
34737;SDS011;39910;47.154;27.614;2023-02-21T04:24:30;9.55;;;9.15;;
34737;SDS011;39910;47.154;27.614;2023-02-21T04:26:56;9.13;;;8.73;;
34737;SDS011;39910;47.154;27.614;2023-02-21T04:29:22;9.80;;;9.30;;
34737;SDS011;39910;47.154;27.614;2023-02-21T04:31:47;9.55;;;9.13;;
34737;SDS011;39910;47.154;27.614;2023-02-21T04:34:12;10.20;;;9.70;;
34737;SDS011;39910;47.154;27.614;2023-02-21T04:36:38;9.70;;;9.23;;
34737;SDS011;39910;47.154;27.614;2023-02-21T04:39:04;9.60;;;9.10;;
34737;SDS011;39910;47.154;27.614;2023-02-21T04:41:29;9.48;;;9.07;;
34737;SDS011;39910;47.154;27.614;2023-02-21T04:43:54;9.55;;;9.15;;
34737;SDS011;39910;47.154;27.614;2023-02-21T04:46:20;9.30;;;8.90;;
34737;SDS011;39910;47.154;27.614;2023-02-21T04:48:46;10.20;;;9.70;;
34737;SDS011;39910;47.154;27.614;2023-02-21T04:51:12;9.88;;;9.38;;
34737;SDS011;39910;47.154;27.614;2023-02-21T04:53:37;10.32;;;9.82;;
34737;SDS011;39910;47.154;27.614;2023-02-21T04:56:03;9.50;;;9.02;;
34737;SDS011;39910;47.154;27.614;2023-02-21T04:58:28;9.48;;;9.07;;
34737;SDS011;39910;47.154;27.614;2023-02-21T05:00:53;9.93;;;9.43;;
34737;SDS011;39910;47.154;27.614;2023-02-21T05:03:19;9.95;;;9.45;;
34737;SDS011;39910;47.154;27.614;2023-02-21T05:05:44;9.68;;;9.18;;
34737;SDS011;39910;47.154;27.614;2023-02-21T05:08:09;8.82;;;8.40;;
34737;SDS011;39910;47.154;27.614;2023-02-21T05:10:35;9.32;;;8.93;;
34737;SDS011;39910;47.154;27.614;2023-02-21T05:13:00;9.07;;;8.68;;
34737;SDS011;39910;47.154;27.614;2023-02-21T05:15:25;9.98;;;9.48;;
34737;SDS011;39910;47.154;27.614;2023-02-21T05:17:51;10.18;;;9.68;;
34737;SDS011;39910;47.154;27.614;2023-02-21T05:20:16;9.88;;;9.38;;
34737;SDS011;39910;47.154;27.614;2023-02-21T05:22:41;9.57;;;9.18;;
34737;SDS011;39910;47.154;27.614;2023-02-21T05:25:13;10.55;;;10.05;;
34737;SDS011;39910;47.154;27.614;2023-02-21T05:27:39;9.68;;;9.18;;
34737;SDS011;39910;47.154;27.614;2023-02-21T05:30:04;9.25;;;8.85;;
34737;SDS011;39910;47.154;27.614;2023-02-21T05:32:30;10.02;;;9.52;;
34737;SDS011;39910;47.154;27.614;2023-02-21T05:34:55;10.35;;;9.85;;
34737;SDS011;39910;47.154;27.614;2023-02-21T05:37:20;9.80;;;9.30;;
34737;SDS011;39910;47.154;27.614;2023-02-21T05:39:46;9.82;;;9.32;;
34737;SDS011;39910;47.154;27.614;2023-02-21T05:42:11;10.35;;;9.85;;
34737;SDS011;39910;47.154;27.614;2023-02-21T05:44:36;9.60;;;9.15;;
34737;SDS011;39910;47.154;27.614;2023-02-21T05:47:02;9.98;;;9.48;;
34737;SDS011;39910;47.154;27.614;2023-02-21T05:49:27;9.75;;;9.25;;
34737;SDS011;39910;47.154;27.614;2023-02-21T05:51:53;9.70;;;9.25;;
34737;SDS011;39910;47.154;27.614;2023-02-21T05:54:19;9.48;;;9.07;;
34737;SDS011;39910;47.154;27.614;2023-02-21T05:56:45;10.07;;;9.57;;
34737;SDS011;39910;47.154;27.614;2023-02-21T05:59:11;9.68;;;9.25;;
34737;SDS011;39910;47.154;27.614;2023-02-21T06:01:36;10.07;;;9.57;;
34737;SDS011;39910;47.154;27.614;2023-02-21T06:04:02;10.02;;;9.52;;
34737;SDS011;39910;47.154;27.614;2023-02-21T06:06:27;10.35;;;9.85;;
34737;SDS011;39910;47.154;27.614;2023-02-21T06:08:52;10.05;;;9.55;;
34737;SDS011;39910;47.154;27.614;2023-02-21T06:11:25;9.15;;;8.75;;
34737;SDS011;39910;47.154;27.614;2023-02-21T06:13:53;9.75;;;9.27;;
34737;SDS011;39910;47.154;27.614;2023-02-21T06:16:18;9.52;;;9.13;;
34737;SDS011;39910;47.154;27.614;2023-02-21T06:18:44;10.02;;;9.52;;
34737;SDS011;39910;47.154;27.614;2023-02-21T06:21:09;9.70;;;9.30;;
34737;SDS011;39910;47.154;27.614;2023-02-21T06:23:34;10.25;;;9.75;;
34737;SDS011;39910;47.154;27.614;2023-02-21T06:26:00;9.68;;;9.25;;
34737;SDS011;39910;47.154;27.614;2023-02-21T06:28:29;10.25;;;9.75;;
34737;SDS011;39910;47.154;27.614;2023-02-21T06:30:54;11.10;;;10.52;;
34737;SDS011;39910;47.154;27.614;2023-02-21T06:33:21;10.43;;;9.93;;
34737;SDS011;39910;47.154;27.614;2023-02-21T06:35:46;9.73;;;9.27;;
34737;SDS011;39910;47.154;27.614;2023-02-21T06:38:11;9.15;;;8.75;;
34737;SDS011;39910;47.154;27.614;2023-02-21T06:40:37;10.00;;;9.50;;
34737;SDS011;39910;47.154;27.614;2023-02-21T06:43:02;9.38;;;8.98;;
34737;SDS011;39910;47.154;27.614;2023-02-21T06:45:27;9.98;;;9.48;;
34737;SDS011;39910;47.154;27.614;2023-02-21T06:47:53;9.70;;;9.30;;
34737;SDS011;39910;47.154;27.614;2023-02-21T06:50:18;9.43;;;9.02;;
34737;SDS011;39910;47.154;27.614;2023-02-21T06:52:43;9.57;;;9.18;;
34737;SDS011;39910;47.154;27.614;2023-02-21T06:55:09;9.98;;;9.48;;
34737;SDS011;39910;47.154;27.614;2023-02-21T06:57:34;10.25;;;9.75;;
34737;SDS011;39910;47.154;27.614;2023-02-21T06:59:59;9.82;;;9.38;;
34737;SDS011;39910;47.154;27.614;2023-02-21T07:02:25;10.20;;;9.70;;
34737;SDS011;39910;47.154;27.614;2023-02-21T07:04:50;9.40;;;9.00;;
34737;SDS011;39910;47.154;27.614;2023-02-21T07:07:15;9.57;;;9.18;;
34737;SDS011;39910;47.154;27.614;2023-02-21T07:09:41;9.75;;;9.35;;
34737;SDS011;39910;47.154;27.614;2023-02-21T07:12:06;9.80;;;9.40;;
34737;SDS011;39910;47.154;27.614;2023-02-21T07:14:33;9.52;;;9.13;;
34737;SDS011;39910;47.154;27.614;2023-02-21T07:16:58;10.05;;;9.55;;
34737;SDS011;39910;47.154;27.614;2023-02-21T07:19:23;10.35;;;9.85;;
34737;SDS011;39910;47.154;27.614;2023-02-21T07:21:48;10.35;;;9.85;;
34737;SDS011;39910;47.154;27.614;2023-02-21T07:24:14;9.95;;;9.55;;
34737;SDS011;39910;47.154;27.614;2023-02-21T07:26:39;9.95;;;9.52;;
34737;SDS011;39910;47.154;27.614;2023-02-21T07:29:05;10.25;;;9.75;;
34737;SDS011;39910;47.154;27.614;2023-02-21T07:31:30;9.68;;;9.27;;
34737;SDS011;39910;47.154;27.614;2023-02-21T07:33:55;9.95;;;9.52;;
34737;SDS011;39910;47.154;27.614;2023-02-21T07:36:21;10.10;;;9.60;;
34737;SDS011;39910;47.154;27.614;2023-02-21T07:38:47;9.50;;;9.10;;
34737;SDS011;39910;47.154;27.614;2023-02-21T07:41:12;9.80;;;9.40;;
34737;SDS011;39910;47.154;27.614;2023-02-21T07:43:38;11.93;;;11.32;;
34737;SDS011;39910;47.154;27.614;2023-02-21T07:46:03;10.98;;;10.48;;
34737;SDS011;39910;47.154;27.614;2023-02-21T07:48:29;11.82;;;11.23;;
34737;SDS011;39910;47.154;27.614;2023-02-21T07:50:54;11.10;;;10.60;;
34737;SDS011;39910;47.154;27.614;2023-02-21T07:53:19;10.82;;;10.32;;
34737;SDS011;39910;47.154;27.614;2023-02-21T07:55:45;10.85;;;10.35;;
34737;SDS011;39910;47.154;27.614;2023-02-21T07:58:10;10.85;;;10.35;;
34737;SDS011;39910;47.154;27.614;2023-02-21T08:00:35;11.18;;;10.68;;
34737;SDS011;39910;47.154;27.614;2023-02-21T08:03:01;10.82;;;10.32;;
34737;SDS011;39910;47.154;27.614;2023-02-21T08:05:26;10.82;;;10.32;;
34737;SDS011;39910;47.154;27.614;2023-02-21T08:07:51;10.82;;;10.32;;
34737;SDS011;39910;47.154;27.614;2023-02-21T08:10:22;10.85;;;10.35;;
34737;SDS011;39910;47.154;27.614;2023-02-21T08:12:48;10.50;;;10.00;;
34737;SDS011;39910;47.154;27.614;2023-02-21T08:15:13;11.10;;;10.60;;
34737;SDS011;39910;47.154;27.614;2023-02-21T08:17:38;10.60;;;10.10;;
34737;SDS011;39910;47.154;27.614;2023-02-21T08:20:04;10.88;;;10.38;;
34737;SDS011;39910;47.154;27.614;2023-02-21T08:22:30;10.52;;;10.02;;
34737;SDS011;39910;47.154;27.614;2023-02-21T08:24:56;10.52;;;10.02;;
34737;SDS011;39910;47.154;27.614;2023-02-21T08:27:21;10.67;;;10.17;;
34737;SDS011;39910;47.154;27.614;2023-02-21T08:29:48;10.32;;;9.90;;
34737;SDS011;39910;47.154;27.614;2023-02-21T08:32:14;10.25;;;9.85;;
34737;SDS011;39910;47.154;27.614;2023-02-21T08:34:39;10.50;;;10.00;;
34737;SDS011;39910;47.154;27.614;2023-02-21T08:37:04;10.95;;;10.45;;
34737;SDS011;39910;47.154;27.614;2023-02-21T08:39:38;10.80;;;10.30;;
34737;SDS011;39910;47.154;27.614;2023-02-21T08:42:03;10.55;;;10.05;;
34737;SDS011;39910;47.154;27.614;2023-02-21T08:44:29;10.88;;;10.38;;
34737;SDS011;39910;47.154;27.614;2023-02-21T08:46:54;10.90;;;10.40;;
34737;SDS011;39910;47.154;27.614;2023-02-21T08:49:19;10.70;;;10.20;;
34737;SDS011;39910;47.154;27.614;2023-02-21T08:51:45;11.07;;;10.57;;
34737;SDS011;39910;47.154;27.614;2023-02-21T08:54:11;10.70;;;10.20;;
34737;SDS011;39910;47.154;27.614;2023-02-21T08:56:37;11.50;;;10.95;;
34737;SDS011;39910;47.154;27.614;2023-02-21T08:59:02;11.48;;;10.98;;
34737;SDS011;39910;47.154;27.614;2023-02-21T09:01:32;10.70;;;10.20;;
34737;SDS011;39910;47.154;27.614;2023-02-21T09:03:58;10.90;;;10.40;;
34737;SDS011;39910;47.154;27.614;2023-02-21T09:06:23;11.10;;;10.60;;
34737;SDS011;39910;47.154;27.614;2023-02-21T09:08:49;11.73;;;11.13;;
34737;SDS011;39910;47.154;27.614;2023-02-21T09:11:14;11.07;;;10.57;;
34737;SDS011;39910;47.154;27.614;2023-02-21T09:13:40;11.32;;;10.82;;
34737;SDS011;39910;47.154;27.614;2023-02-21T09:16:05;10.60;;;10.10;;
34737;SDS011;39910;47.154;27.614;2023-02-21T09:18:31;10.95;;;10.45;;
34737;SDS011;39910;47.154;27.614;2023-02-21T09:20:56;10.30;;;9.80;;
34737;SDS011;39910;47.154;27.614;2023-02-21T09:23:24;11.23;;;10.70;;
34737;SDS011;39910;47.154;27.614;2023-02-21T09:25:50;10.77;;;10.27;;
34737;SDS011;39910;47.154;27.614;2023-02-21T09:28:16;10.82;;;10.32;;
34737;SDS011;39910;47.154;27.614;2023-02-21T09:30:41;10.70;;;10.20;;
34737;SDS011;39910;47.154;27.614;2023-02-21T09:33:07;10.73;;;10.23;;
34737;SDS011;39910;47.154;27.614;2023-02-21T09:35:32;9.90;;;9.50;;
34737;SDS011;39910;47.154;27.614;2023-02-21T09:37:58;10.55;;;10.05;;
34737;SDS011;39910;47.154;27.614;2023-02-21T09:43:19;10.63;;;10.13;;
34737;SDS011;39910;47.154;27.614;2023-02-21T09:45:45;10.73;;;10.23;;
34737;SDS011;39910;47.154;27.614;2023-02-21T09:48:16;10.85;;;10.35;;
34737;SDS011;39910;47.154;27.614;2023-02-21T09:50:46;11.02;;;10.52;;
34737;SDS011;39910;47.154;27.614;2023-02-21T09:53:15;10.30;;;9.80;;
34737;SDS011;39910;47.154;27.614;2023-02-21T09:55:43;10.82;;;10.32;;
34737;SDS011;39910;47.154;27.614;2023-02-21T09:58:13;11.32;;;10.82;;
34737;SDS011;39910;47.154;27.614;2023-02-21T10:00:38;12.18;;;11.57;;
34737;SDS011;39910;47.154;27.614;2023-02-21T10:13:52;10.85;;;10.35;;
34737;SDS011;39910;47.154;27.614;2023-02-21T10:21:32;10.55;;;10.05;;
34737;SDS011;39910;47.154;27.614;2023-02-21T10:23:58;10.25;;;9.75;;
34737;SDS011;39910;47.154;27.614;2023-02-21T10:26:29;10.75;;;10.25;;
34737;SDS011;39910;47.154;27.614;2023-02-21T10:28:55;11.13;;;10.63;;
34737;SDS011;39910;47.154;27.614;2023-02-21T10:31:23;11.00;;;10.50;;
34737;SDS011;39910;47.154;27.614;2023-02-21T10:33:49;10.93;;;10.43;;
34737;SDS011;39910;47.154;27.614;2023-02-21T10:36:18;10.77;;;10.27;;
34737;SDS011;39910;47.154;27.614;2023-02-21T10:39:16;10.57;;;10.07;;
34737;SDS011;39910;47.154;27.614;2023-02-21T10:41:31;10.48;;;9.98;;
34737;SDS011;39910;47.154;27.614;2023-02-21T10:44:00;10.30;;;9.80;;
34737;SDS011;39910;47.154;27.614;2023-02-21T10:46:39;10.57;;;10.07;;
34737;SDS011;39910;47.154;27.614;2023-02-21T10:49:19;11.10;;;10.60;;
34737;SDS011;39910;47.154;27.614;2023-02-21T10:51:45;10.40;;;9.90;;
34737;SDS011;39910;47.154;27.614;2023-02-21T10:56:43;9.85;;;9.45;;
34737;SDS011;39910;47.154;27.614;2023-02-21T10:59:08;9.88;;;9.48;;
34737;SDS011;39910;47.154;27.614;2023-02-21T11:01:52;9.95;;;9.55;;
34737;SDS011;39910;47.154;27.614;2023-02-21T11:06:45;10.60;;;10.10;;
34737;SDS011;39910;47.154;27.614;2023-02-21T11:11:51;10.30;;;9.80;;
34737;SDS011;39910;47.154;27.614;2023-02-21T11:14:23;10.73;;;10.23;;
34737;SDS011;39910;47.154;27.614;2023-02-21T11:17:34;10.70;;;10.20;;
34737;SDS011;39910;47.154;27.614;2023-02-21T11:22:13;11.45;;;10.93;;
34737;SDS011;39910;47.154;27.614;2023-02-21T11:24:45;11.07;;;10.57;;
34737;SDS011;39910;47.154;27.614;2023-02-21T11:27:11;10.98;;;10.48;;
34737;SDS011;39910;47.154;27.614;2023-02-21T11:29:38;10.48;;;9.98;;
34737;SDS011;39910;47.154;27.614;2023-02-21T11:32:12;11.00;;;10.50;;
34737;SDS011;39910;47.154;27.614;2023-02-21T11:34:44;11.85;;;11.25;;
34737;SDS011;39910;47.154;27.614;2023-02-21T11:37:12;10.55;;;10.05;;
34737;SDS011;39910;47.154;27.614;2023-02-21T11:39:38;10.20;;;9.70;;
34737;SDS011;39910;47.154;27.614;2023-02-21T11:42:22;10.38;;;9.88;;
34737;SDS011;39910;47.154;27.614;2023-02-21T11:44:47;10.32;;;9.82;;
34737;SDS011;39910;47.154;27.614;2023-02-21T11:47:16;10.52;;;10.02;;
34737;SDS011;39910;47.154;27.614;2023-02-21T11:49:48;11.05;;;10.55;;
34737;SDS011;39910;47.154;27.614;2023-02-21T11:52:15;9.88;;;9.48;;
34737;SDS011;39910;47.154;27.614;2023-02-21T11:54:42;10.30;;;9.80;;
34737;SDS011;39910;47.154;27.614;2023-02-21T12:00:01;11.90;;;11.30;;
34737;SDS011;39910;47.154;27.614;2023-02-21T12:18:23;11.45;;;10.90;;
34737;SDS011;39910;47.154;27.614;2023-02-21T12:33:59;11.05;;;10.55;;
34737;SDS011;39910;47.154;27.614;2023-02-21T12:37:27;10.50;;;10.00;;
34737;SDS011;39910;47.154;27.614;2023-02-21T12:39:25;10.73;;;10.23;;
34737;SDS011;39910;47.154;27.614;2023-02-21T12:44:42;11.13;;;10.63;;
34737;SDS011;39910;47.154;27.614;2023-02-21T12:50:00;11.18;;;10.68;;
34737;SDS011;39910;47.154;27.614;2023-02-21T12:57:22;10.98;;;10.48;;
34737;SDS011;39910;47.154;27.614;2023-02-21T12:59:52;11.23;;;10.73;;
34737;SDS011;39910;47.154;27.614;2023-02-21T13:02:25;11.25;;;10.75;;
34737;SDS011;39910;47.154;27.614;2023-02-21T13:04:54;10.90;;;10.40;;
34737;SDS011;39910;47.154;27.614;2023-02-21T13:12:29;12.00;;;11.40;;
34737;SDS011;39910;47.154;27.614;2023-02-21T13:14:59;10.98;;;10.48;;
34737;SDS011;39910;47.154;27.614;2023-02-21T13:17:26;11.18;;;10.68;;
34737;SDS011;39910;47.154;27.614;2023-02-21T13:20:14;10.93;;;10.43;;
34737;SDS011;39910;47.154;27.614;2023-02-21T13:28:29;11.75;;;11.15;;
34737;SDS011;39910;47.154;27.614;2023-02-21T13:30:59;11.68;;;11.07;;
34737;SDS011;39910;47.154;27.614;2023-02-21T13:35:51;11.10;;;10.60;;
34737;SDS011;39910;47.154;27.614;2023-02-21T13:38:17;11.35;;;10.85;;
34737;SDS011;39910;47.154;27.614;2023-02-21T13:40:52;10.52;;;10.02;;
34737;SDS011;39910;47.154;27.614;2023-02-21T13:43:23;11.73;;;11.13;;
34737;SDS011;39910;47.154;27.614;2023-02-21T13:45:49;11.57;;;10.98;;
34737;SDS011;39910;47.154;27.614;2023-02-21T13:48:21;11.02;;;10.52;;
34737;SDS011;39910;47.154;27.614;2023-02-21T13:50:48;11.50;;;10.93;;
34737;SDS011;39910;47.154;27.614;2023-02-21T13:53:22;11.63;;;11.02;;
34737;SDS011;39910;47.154;27.614;2023-02-21T13:58:41;11.63;;;11.02;;
34737;SDS011;39910;47.154;27.614;2023-02-21T14:03:37;11.85;;;11.25;;
34737;SDS011;39910;47.154;27.614;2023-02-21T14:08:41;11.73;;;11.13;;
34737;SDS011;39910;47.154;27.614;2023-02-21T14:13:50;10.75;;;10.25;;
34737;SDS011;39910;47.154;27.614;2023-02-21T14:16:17;10.95;;;10.45;;
34737;SDS011;39910;47.154;27.614;2023-02-21T14:19:05;12.05;;;11.45;;
34737;SDS011;39910;47.154;27.614;2023-02-21T14:24:00;11.93;;;11.32;;
34737;SDS011;39910;47.154;27.614;2023-02-21T14:34:10;11.60;;;11.00;;
34737;SDS011;39910;47.154;27.614;2023-02-21T14:36:36;11.15;;;10.55;;
34737;SDS011;39910;47.154;27.614;2023-02-21T14:39:02;11.73;;;11.13;;
34737;SDS011;39910;47.154;27.614;2023-02-21T14:46:35;11.55;;;10.95;;
34737;SDS011;39910;47.154;27.614;2023-02-21T15:01:41;11.55;;;10.95;;
34737;SDS011;39910;47.154;27.614;2023-02-21T15:06:49;10.98;;;10.38;;
34737;SDS011;39910;47.154;27.614;2023-02-21T15:09:18;12.70;;;12.00;;
34737;SDS011;39910;47.154;27.614;2023-02-21T15:11:43;11.68;;;11.07;;
34737;SDS011;39910;47.154;27.614;2023-02-21T15:16:39;11.77;;;11.15;;
34737;SDS011;39910;47.154;27.614;2023-02-21T15:19:15;10.90;;;10.30;;
34737;SDS011;39910;47.154;27.614;2023-02-21T15:21:43;10.77;;;10.18;;
34737;SDS011;39910;47.154;27.614;2023-02-21T15:24:12;10.98;;;10.38;;
34737;SDS011;39910;47.154;27.614;2023-02-21T15:26:38;11.45;;;10.85;;
34737;SDS011;39910;47.154;27.614;2023-02-21T15:29:13;12.65;;;11.93;;
34737;SDS011;39910;47.154;27.614;2023-02-21T15:31:40;11.68;;;11.07;;
34737;SDS011;39910;47.154;27.614;2023-02-21T15:34:13;11.57;;;10.90;;
34737;SDS011;39910;47.154;27.614;2023-02-21T15:39:06;10.55;;;10.00;;
34737;SDS011;39910;47.154;27.614;2023-02-21T15:41:39;10.27;;;9.77;;
34737;SDS011;39910;47.154;27.614;2023-02-21T15:44:09;10.65;;;10.13;;
34737;SDS011;39910;47.154;27.614;2023-02-21T15:46:43;11.30;;;10.70;;
34737;SDS011;39910;47.154;27.614;2023-02-21T15:49:15;11.43;;;10.82;;
34737;SDS011;39910;47.154;27.614;2023-02-21T15:51:42;10.90;;;10.30;;
34737;SDS011;39910;47.154;27.614;2023-02-21T15:54:08;10.60;;;10.05;;
34737;SDS011;39910;47.154;27.614;2023-02-21T15:56:34;10.65;;;10.10;;
34737;SDS011;39910;47.154;27.614;2023-02-21T16:01:33;10.60;;;10.10;;
34737;SDS011;39910;47.154;27.614;2023-02-21T16:06:44;11.48;;;10.88;;
34737;SDS011;39910;47.154;27.614;2023-02-21T16:19:37;10.00;;;9.50;;
34737;SDS011;39910;47.154;27.614;2023-02-21T16:24:48;10.33;;;9.83;;
34737;SDS011;39910;47.154;27.614;2023-02-21T16:27:14;10.30;;;9.77;;
34737;SDS011;39910;47.154;27.614;2023-02-21T16:29:40;10.20;;;9.70;;
34737;SDS011;39910;47.154;27.614;2023-02-21T16:32:08;10.30;;;9.80;;
34737;SDS011;39910;47.154;27.614;2023-02-21T16:34:38;9.55;;;9.13;;
34737;SDS011;39910;47.154;27.614;2023-02-21T16:37:04;11.18;;;10.57;;
34737;SDS011;39910;47.154;27.614;2023-02-21T16:39:31;9.73;;;9.23;;
34737;SDS011;39910;47.154;27.614;2023-02-21T16:41:57;10.75;;;10.15;;
34737;SDS011;39910;47.154;27.614;2023-02-21T16:44:22;10.27;;;9.77;;
34737;SDS011;39910;47.154;27.614;2023-02-21T16:46:49;10.77;;;10.18;;
34737;SDS011;39910;47.154;27.614;2023-02-21T16:49:15;10.70;;;10.10;;
34737;SDS011;39910;47.154;27.614;2023-02-21T16:51:41;10.65;;;10.13;;
34737;SDS011;39910;47.154;27.614;2023-02-21T16:54:07;10.88;;;10.27;;
34737;SDS011;39910;47.154;27.614;2023-02-21T16:56:33;9.70;;;9.23;;
34737;SDS011;39910;47.154;27.614;2023-02-21T16:59:08;9.85;;;9.35;;
34737;SDS011;39910;47.154;27.614;2023-02-21T17:01:34;9.73;;;9.23;;
34737;SDS011;39910;47.154;27.614;2023-02-21T17:04:01;10.85;;;10.25;;
34737;SDS011;39910;47.154;27.614;2023-02-21T17:06:29;9.98;;;9.48;;
34737;SDS011;39910;47.154;27.614;2023-02-21T17:08:54;10.00;;;9.50;;
34737;SDS011;39910;47.154;27.614;2023-02-21T17:11:19;10.75;;;10.15;;
34737;SDS011;39910;47.154;27.614;2023-02-21T17:13:45;9.75;;;9.25;;
34737;SDS011;39910;47.154;27.614;2023-02-21T17:16:10;10.00;;;9.52;;
34737;SDS011;39910;47.154;27.614;2023-02-21T17:18:35;10.80;;;10.20;;
34737;SDS011;39910;47.154;27.614;2023-02-21T17:21:01;9.70;;;9.20;;
34737;SDS011;39910;47.154;27.614;2023-02-21T17:23:26;10.13;;;9.63;;
34737;SDS011;39910;47.154;27.614;2023-02-21T17:25:51;9.90;;;9.40;;
34737;SDS011;39910;47.154;27.614;2023-02-21T17:28:17;10.13;;;9.63;;
34737;SDS011;39910;47.154;27.614;2023-02-21T17:30:42;10.40;;;9.90;;
34737;SDS011;39910;47.154;27.614;2023-02-21T17:33:08;9.40;;;9.00;;
34737;SDS011;39910;47.154;27.614;2023-02-21T17:35:35;9.57;;;9.10;;
34737;SDS011;39910;47.154;27.614;2023-02-21T17:38:00;8.98;;;8.57;;
34737;SDS011;39910;47.154;27.614;2023-02-21T17:40:26;9.95;;;9.45;;
34737;SDS011;39910;47.154;27.614;2023-02-21T17:42:51;10.48;;;9.93;;
34737;SDS011;39910;47.154;27.614;2023-02-21T17:45:17;10.55;;;10.05;;
34737;SDS011;39910;47.154;27.614;2023-02-21T17:47:43;9.65;;;9.15;;
34737;SDS011;39910;47.154;27.614;2023-02-21T17:50:08;9.73;;;9.23;;
34737;SDS011;39910;47.154;27.614;2023-02-21T17:52:34;9.27;;;8.88;;